Time;durP1;ratioP1;P1;durP2;ratioP2;P2;SDS_P1;SDS_P2;PMS_P1;PMS_P2;Temp;Humidity;BMP_temperature;BMP_pressure;BME280_temperature;BME280_humidity;BME280_pressure;Samples;Min_cycle;Max_cycle;Signal;HPM_P1;HPM_P2
2022/03/16 00:01:00;;;;;;;25.70;11.90;;;;;;;-3.78;72.43;99840.30;104877;1271;75575;-28
2022/03/16 00:03:29;;;;;;;35.80;15.40;;;;;;;-2.79;69.71;99843.05;104920;1271;75737;-29
2022/03/16 00:05:59;;;;;;;46.60;20.40;;;;;;;-2.43;68.35;99842.54;104816;1271;73718;-29
2022/03/16 00:08:29;;;;;;;50.90;23.20;;;;;;;-2.49;67.66;99844.00;104815;1274;61270;-28
2022/03/16 00:11:01;;;;;;;38.40;15.70;;;;;;;-2.71;67.66;99839.55;104987;1271;61902;-29
2022/03/16 00:13:31;;;;;;;25.30;11.60;;;;;;;-2.94;67.52;99835.77;104739;1271;75364;-29
2022/03/16 00:16:00;;;;;;;28.90;12.30;;;;;;;-3.12;67.60;99833.66;104791;1272;75132;-29
2022/03/16 00:18:30;;;;;;;26.60;12.10;;;;;;;-3.28;67.54;99833.84;104928;1271;74109;-28
2022/03/16 00:20:59;;;;;;;36.60;13.80;;;;;;;-3.41;67.73;99832.11;104934;1271;61124;-28
2022/03/16 00:23:28;;;;;;;40.70;15.30;;;;;;;-3.54;67.65;99832.26;104941;1271;61109;-28
2022/03/16 00:25:57;;;;;;;42.20;16.30;;;;;;;-3.64;68.08;99827.80;104835;1274;74626;-30
2022/03/16 00:28:27;;;;;;;42.30;16.90;;;;;;;-3.74;68.81;99825.52;104828;1273;76013;-28
2022/03/16 00:30:56;;;;;;;38.50;12.80;;;;;;;-3.85;68.14;99821.55;104899;1272;74706;-28
2022/03/16 00:33:26;;;;;;;35.00;13.00;;;;;;;-3.89;68.70;99820.24;104815;1272;62143;-28
2022/03/16 00:35:55;;;;;;;27.40;9.40;;;;;;;-3.92;69.41;99816.69;105008;1271;60991;-29
2022/03/16 00:38:24;;;;;;;44.10;13.70;;;;;;;-3.87;69.51;99816.65;105010;1271;75518;-28
2022/03/16 00:40:53;;;;;;;39.40;15.70;;;;;;;-3.82;70.04;99818.81;104993;1270;74913;-30
2022/03/16 00:43:23;;;;;;;53.00;22.20;;;;;;;-3.81;69.36;99817.77;104814;1274;72324;-29
2022/03/16 00:45:53;;;;;;;46.80;20.00;;;;;;;-3.87;70.02;99818.85;104935;1271;61837;-29
2022/03/16 00:48:22;;;;;;;25.70;14.30;;;;;;;-3.96;70.57;99822.00;104849;1271;61262;-29
2022/03/16 00:50:51;;;;;;;41.60;17.10;;;;;;;-3.44;70.89;99825.67;104988;1270;75569;-29
2022/03/16 00:53:20;;;;;;;42.10;19.80;;;;;;;-2.43;69.32;99823.98;104828;1272;76088;-30
2022/03/16 00:55:49;;;;;;;53.50;23.10;;;;;;;-2.09;66.80;99826.51;105157;1271;73320;-29
2022/03/16 00:58:19;;;;;;;41.80;20.40;;;;;;;-2.24;66.83;99817.73;105274;1271;61203;-29
2022/03/16 01:00:48;;;;;;;37.40;18.00;;;;;;;-2.41;66.76;99811.55;104981;1274;61695;-28
2022/03/16 01:03:18;;;;;;;33.60;15.40;;;;;;;-2.64;67.13;99811.91;105065;1271;74297;-28
2022/03/16 01:05:48;;;;;;;34.60;15.50;;;;;;;-2.87;67.81;99811.23;105018;1271;74804;-29
2022/03/16 01:08:17;;;;;;;31.40;13.10;;;;;;;-3.11;69.09;99807.80;104874;1271;74582;-28
2022/03/16 01:10:52;;;;;;;51.00;22.90;;;;;;;-3.26;69.03;99805.95;104898;1271;61146;-28
2022/03/16 01:13:21;;;;;;;40.30;18.60;;;;;;;-3.41;69.18;99803.92;105020;1271;61100;-29
2022/03/16 01:15:50;;;;;;;41.10;17.10;;;;;;;-3.58;69.20;99802.60;105008;1270;75657;-29
2022/03/16 01:18:21;;;;;;;39.00;19.50;;;;;;;-3.75;69.88;99793.44;104762;1271;76025;-30
2022/03/16 01:20:50;;;;;;;45.20;20.30;;;;;;;-3.89;70.42;99789.17;104846;1274;74346;-29
2022/03/16 01:23:19;;;;;;;36.00;14.80;;;;;;;-3.98;69.89;99783.86;104964;1271;61977;-29
2022/03/16 01:25:49;;;;;;;24.70;12.60;;;;;;;-4.02;70.88;99777.95;104764;1274;61020;-29
2022/03/16 01:28:17;;;;;;;28.50;12.70;;;;;;;-4.03;70.96;99774.23;104824;1274;75538;-29
2022/03/16 01:30:47;;;;;;;23.50;11.80;;;;;;;-4.03;71.10;99768.30;104821;1274;75927;-29
2022/03/16 01:33:16;;;;;;;10.80;6.40;;;;;;;-3.98;71.51;99765.17;104742;1274;74435;-29
2022/03/16 01:35:48;;;;;;;17.10;7.50;;;;;;;-3.24;70.79;99772.29;104805;1274;62651;-29
2022/03/16 01:38:17;;;;;;;14.50;6.60;;;;;;;-2.31;69.05;99772.45;104384;1275;523288;-29
2022/03/16 01:40:46;;;;;;;16.60;8.80;;;;;;;-2.05;67.54;99775.58;105129;1274;75710;-29
2022/03/16 01:43:15;;;;;;;17.30;8.10;;;;;;;-2.12;67.22;99775.18;104834;1274;76353;-29
2022/03/16 01:45:47;;;;;;;25.50;10.80;;;;;;;-2.27;67.33;99778.52;104811;1274;72338;-29
2022/03/16 01:48:18;;;;;;;19.10;8.20;;;;;;;-2.44;67.58;99778.95;104612;1274;61157;-29
2022/03/16 01:50:47;;;;;;;20.40;9.40;;;;;;;-2.62;67.99;99780.77;104734;1274;62100;-29
2022/03/16 01:53:16;;;;;;;15.30;7.00;;;;;;;-2.78;68.85;99784.23;105164;1274;73770;-29
2022/03/16 01:55:46;;;;;;;14.30;8.20;;;;;;;-2.92;69.34;99782.23;104878;1274;76095;-29
2022/03/16 01:58:17;;;;;;;17.00;7.30;;;;;;;-3.02;69.64;99786.95;104654;1274;74396;-29
2022/03/16 02:00:46;;;;;;;11.80;6.90;;;;;;;-3.13;69.66;99787.80;104706;1274;61096;-29
2022/03/16 02:03:15;;;;;;;13.80;8.20;;;;;;;-3.24;70.06;99788.28;104752;1274;62239;-29
2022/03/16 02:05:49;;;;;;;16.80;9.90;;;;;;;-3.33;70.75;99782.45;104749;1274;75638;-29
2022/03/16 02:08:21;;;;;;;23.70;9.50;;;;;;;-3.41;70.79;99783.73;104599;1274;76017;-29
2022/03/16 02:10:51;;;;;;;12.00;5.00;;;;;;;-3.45;71.21;99782.41;104625;1274;74360;-29
2022/03/16 02:13:21;;;;;;;11.20;6.30;;;;;;;-2.80;71.30;99782.21;104800;1274;62736;-29
2022/03/16 02:15:51;;;;;;;14.10;6.90;;;;;;;-2.00;69.11;99780.42;104767;1275;61158;-29
2022/03/16 02:18:21;;;;;;;12.60;7.50;;;;;;;-1.82;68.22;99778.74;104906;1274;75421;-29
2022/03/16 02:20:55;;;;;;;15.00;8.70;;;;;;;-1.97;68.11;99777.98;104756;1274;76186;-29
2022/03/16 02:23:33;;;;;;;13.20;7.10;;;;;;;-2.19;68.49;99779.90;104840;1274;74539;-29
2022/03/16 02:26:02;;;;;;;11.30;5.60;;;;;;;-2.43;69.14;99778.95;105145;1271;61997;-29
2022/03/16 02:28:46;;;;;;;8.80;5.40;;;;;;;-2.66;70.06;99773.86;105074;1271;61019;-29
2022/03/16 02:31:17;;;;;;;13.70;5.50;;;;;;;-2.81;70.97;99774.41;105068;1271;74536;-29
2022/03/16 02:34:04;;;;;;;16.10;7.80;;;;;;;-2.97;71.47;99772.11;104776;1271;76031;-29
2022/03/16 02:36:34;;;;;;;10.80;5.00;;;;;;;-3.12;72.12;99772.84;104829;1271;75069;-29
2022/03/16 02:39:03;;;;;;;10.00;4.30;;;;;;;-3.19;73.04;99774.80;104949;1271;63594;-29
2022/03/16 02:41:33;;;;;;;17.20;6.70;;;;;;;-2.60;72.56;99772.05;104799;1271;61069;-29
2022/03/16 02:44:02;;;;;;;14.50;7.90;;;;;;;-1.95;70.92;99768.92;104942;1271;76609;-29
2022/03/16 02:46:32;;;;;;;13.80;6.70;;;;;;;-1.85;69.96;99763.63;105077;1271;76081;-29
2022/03/16 02:49:02;;;;;;;13.60;8.20;;;;;;;-2.00;70.69;99766.64;105040;1271;74795;-29
2022/03/16 02:51:31;;;;;;;12.30;7.00;;;;;;;-2.17;71.03;99766.09;104812;1271;61157;-29
2022/03/16 02:54:00;;;;;;;18.00;10.00;;;;;;;-2.35;71.59;99769.10;104987;1271;61788;-29
2022/03/16 02:56:31;;;;;;;14.30;6.40;;;;;;;-2.53;72.04;99769.91;104959;1271;75567;-29
2022/03/16 02:59:02;;;;;;;13.90;6.60;;;;;;;-2.70;73.12;99768.48;104956;1271;75807;-29
2022/03/16 03:03:51;;;;;;;5.50;3.20;;;;;;;-2.92;75.03;99768.64;102235;1303;600547;-30
2022/03/16 03:06:20;;;;;;;14.70;6.80;;;;;;;-2.82;75.21;99766.96;104389;1284;62783;-30
2022/03/16 03:09:04;;;;;;;8.00;4.20;;;;;;;-1.94;73.39;99768.40;104286;1284;61074;-27
2022/03/16 03:11:33;;;;;;;7.30;4.30;;;;;;;-1.58;72.07;99765.34;104020;1284;73873;-28
2022/03/16 03:14:03;;;;;;;10.50;5.80;;;;;;;-1.60;71.76;99762.47;104143;1284;76029;-30
2022/03/16 03:16:32;;;;;;;7.90;4.30;;;;;;;-1.78;72.44;99758.89;103857;1283;223709;-31
2022/03/16 03:19:02;;;;;;;6.80;4.20;;;;;;;-2.01;73.14;99753.55;104267;1283;61077;-30
2022/03/16 03:21:32;;;;;;;10.10;5.60;;;;;;;-2.18;73.62;99750.27;104468;1282;61049;-31
2022/03/16 03:24:01;;;;;;;10.30;6.30;;;;;;;-2.37;74.43;99752.48;104158;1283;73919;-31
2022/03/16 03:26:36;;;;;;;6.90;5.30;;;;;;;-2.53;75.16;99755.11;104495;1283;74281;-29
2022/03/16 03:29:05;;;;;;;13.30;6.10;;;;;;;-2.21;75.06;99757.30;104476;1283;73512;-30
2022/03/16 03:31:35;;;;;;;16.10;7.40;;;;;;;-1.57;73.17;99760.52;104476;1283;61177;-30
2022/03/16 03:34:24;;;;;;;6.90;3.90;;;;;;;-1.46;72.36;99768.83;104482;1283;62281;-32
2022/03/16 03:36:54;;;;;;;12.00;4.20;;;;;;;-1.63;72.59;99765.78;104489;1283;74587;-32
2022/03/16 03:39:23;;;;;;;8.20;4.60;;;;;;;-1.86;73.46;99770.96;104283;1284;74717;-28
2022/03/16 03:41:54;;;;;;;10.10;4.10;;;;;;;-2.05;74.35;99772.68;104479;1283;73438;-28
2022/03/16 03:44:23;;;;;;;15.20;4.00;;;;;;;-2.22;74.97;99771.45;104427;1283;61109;-29
2022/03/16 03:46:53;;;;;;;6.30;4.60;;;;;;;-2.38;76.16;99775.45;104424;1283;61788;-29
2022/03/16 03:49:23;;;;;;;9.00;5.40;;;;;;;-2.32;76.76;99765.83;104204;1283;75288;-29
2022/03/16 03:51:53;;;;;;;8.30;4.40;;;;;;;-1.73;75.33;99767.66;104268;1283;76003;-28
2022/03/16 03:54:22;;;;;;;5.50;3.20;;;;;;;-1.50;74.08;99765.85;104444;1283;73398;-29
2022/03/16 03:56:51;;;;;;;9.80;5.70;;;;;;;-1.57;74.44;99774.00;104413;1283;61151;-29
2022/03/16 03:59:21;;;;;;;10.50;5.90;;;;;;;-1.72;74.76;99781.61;104520;1283;61010;-29
2022/03/16 04:01:51;;;;;;;14.10;5.00;;;;;;;-1.91;74.94;99785.36;104490;1283;74786;-29
2022/03/16 04:04:20;;;;;;;13.20;5.70;;;;;;;-2.13;75.87;99786.09;104711;1276;74928;-30
2022/03/16 04:06:49;;;;;;;10.00;4.30;;;;;;;-2.14;76.78;99784.08;104700;1276;74383;-29
2022/03/16 04:09:18;;;;;;;14.40;6.50;;;;;;;-1.63;75.56;99782.45;104745;1276;61145;-31
2022/03/16 04:11:49;;;;;;;11.10;5.90;;;;;;;-1.41;74.29;99784.92;104726;1277;61812;-29
2022/03/16 04:14:18;;;;;;;12.00;6.80;;;;;;;-1.53;74.51;99782.77;104750;1276;73597;-29
2022/03/16 04:16:47;;;;;;;9.80;4.90;;;;;;;-1.71;74.94;99781.25;104743;1276;75571;-31
2022/03/16 04:19:17;;;;;;;6.50;4.50;;;;;;;-1.91;75.70;99782.30;104718;1276;74642;-28
2022/03/16 04:21:46;;;;;;;8.50;3.10;;;;;;;-2.09;76.80;99781.95;104701;1278;61512;-29
2022/03/16 04:24:16;;;;;;;9.30;5.10;;;;;;;-1.92;76.87;99781.98;104762;1277;61013;-29
2022/03/16 04:26:45;;;;;;;11.40;5.60;;;;;;;-1.39;75.11;99781.98;104721;1277;74825;-28
2022/03/16 04:29:14;;;;;;;6.20;3.80;;;;;;;-1.29;74.44;99784.48;104418;1278;74973;-29
2022/03/16 04:31:44;;;;;;;14.50;4.80;;;;;;;-1.42;74.61;99781.69;104444;1278;74479;-29
2022/03/16 04:34:13;;;;;;;8.50;4.20;;;;;;;-1.62;75.04;99783.29;104662;1277;61353;-29
2022/03/16 04:36:43;;;;;;;7.90;5.00;;;;;;;-1.85;75.79;99785.92;104629;1277;61035;-28
2022/03/16 04:39:12;;;;;;;7.80;3.60;;;;;;;-2.03;76.55;99785.24;104478;1276;74777;-29
2022/03/16 04:41:41;;;;;;;7.60;4.80;;;;;;;-1.96;77.07;99786.80;104724;1276;75917;-29
2022/03/16 04:44:11;;;;;;;10.30;5.80;;;;;;;-1.36;75.47;99791.45;104597;1277;74225;-29
2022/03/16 04:46:40;;;;;;;9.60;3.80;;;;;;;-1.11;74.07;99794.35;104684;1276;61193;-29
2022/03/16 04:49:09;;;;;;;11.10;6.20;;;;;;;-1.16;74.20;99795.65;104610;1276;62069;-29
2022/03/16 04:51:40;;;;;;;12.10;5.40;;;;;;;-1.32;74.40;99795.47;104419;1277;76589;-29
2022/03/16 04:54:09;;;;;;;9.50;4.50;;;;;;;-1.53;74.88;99796.73;104654;1277;76009;-28
2022/03/16 04:56:39;;;;;;;11.50;5.10;;;;;;;-1.76;75.63;99796.66;104606;1276;74382;-29
2022/03/16 04:59:08;;;;;;;7.90;3.90;;;;;;;-1.99;76.71;99796.73;104556;1277;61159;-30
2022/03/16 05:01:39;;;;;;;9.00;4.00;;;;;;;-1.68;76.61;99798.55;104610;1277;61041;-31
2022/03/16 05:04:09;;;;;;;8.40;5.00;;;;;;;-1.17;74.78;99803.17;104443;1278;74900;-29
2022/03/16 05:06:39;;;;;;;8.20;4.90;;;;;;;-1.06;73.98;99803.10;104729;1277;75781;-29
2022/03/16 05:09:16;;;;;;;9.90;5.20;;;;;;;-1.16;74.30;99803.84;104664;1277;74324;-29
2022/03/16 05:11:47;;;;;;;25.20;9.20;;;;;;;-1.31;74.67;99805.33;104698;1277;61081;-29
2022/03/16 05:14:17;;;;;;;26.90;8.70;;;;;;;-1.48;74.92;99803.78;104732;1278;61227;-28
2022/03/16 05:16:46;;;;;;;21.30;7.60;;;;;;;-1.62;75.54;99803.20;104659;1276;75183;-29
2022/03/16 05:19:16;;;;;;;20.90;7.70;;;;;;;-1.70;76.44;99803.69;104734;1277;75879;-29
2022/03/16 05:21:45;;;;;;;17.60;7.50;;;;;;;-1.08;75.35;99808.94;104705;1277;74235;-28
2022/03/16 05:24:16;;;;;;;12.90;6.10;;;;;;;-0.69;73.63;99807.91;104699;1274;61704;-29
2022/03/16 05:26:45;;;;;;;14.90;5.10;;;;;;;-0.65;73.25;99808.15;104644;1274;61145;-29
2022/03/16 05:29:16;;;;;;;14.30;6.90;;;;;;;-0.73;73.54;99806.46;104676;1274;74785;-28
2022/03/16 05:31:46;;;;;;;10.30;5.70;;;;;;;-0.88;74.23;99802.20;104591;1277;75847;-28
2022/03/16 05:34:17;;;;;;;8.10;5.00;;;;;;;-0.93;74.76;99803.34;104552;1274;74688;-28
2022/03/16 05:36:48;;;;;;;10.50;5.90;;;;;;;-0.87;74.87;99803.38;104522;1275;62883;-29
2022/03/16 05:39:17;;;;;;;7.30;4.50;;;;;;;-0.25;73.44;99801.92;104628;1274;61009;-29
2022/03/16 05:41:47;;;;;;;9.90;5.60;;;;;;;0.08;72.16;99801.96;104636;1274;74508;-29
2022/03/16 05:44:16;;;;;;;10.10;4.80;;;;;;;0.06;71.84;99807.98;104705;1274;75609;-29
2022/03/16 05:46:45;;;;;;;14.70;7.70;;;;;;;-0.06;71.99;99806.23;104686;1274;73936;-28
2022/03/16 05:49:15;;;;;;;11.50;5.10;;;;;;;-0.25;72.33;99812.50;104734;1274;61590;-29
2022/03/16 05:51:45;;;;;;;13.50;7.90;;;;;;;-0.36;73.18;99822.33;104721;1274;63794;-28
2022/03/16 05:54:14;;;;;;;8.40;5.00;;;;;;;-0.47;73.31;99820.04;104705;1275;74704;-28
2022/03/16 05:56:44;;;;;;;9.90;5.90;;;;;;;-0.18;73.19;99826.15;104669;1274;76200;-28
2022/03/16 05:59:13;;;;;;;8.60;5.30;;;;;;;0.43;71.30;99822.21;104740;1274;74422;-28
2022/03/16 06:01:43;;;;;;;16.40;9.10;;;;;;;0.60;69.86;99821.58;104712;1274;61156;-29
2022/03/16 06:04:13;;;;;;;10.50;6.30;;;;;;;0.39;70.43;99818.04;104795;1274;61050;-29
2022/03/16 06:06:42;;;;;;;12.10;6.30;;;;;;;0.28;70.91;99811.33;104761;1274;73820;-29
2022/03/16 06:09:12;;;;;;;10.10;5.60;;;;;;;0.11;71.29;99817.91;104719;1274;75711;-29
2022/03/16 06:11:42;;;;;;;8.80;5.60;;;;;;;-0.08;71.79;99826.10;104600;1275;73385;-29
2022/03/16 06:14:11;;;;;;;13.90;6.80;;;;;;;-0.22;72.62;99819.61;104670;1274;61254;-30
2022/03/16 06:17:00;;;;;;;13.20;6.40;;;;;;;-0.01;72.35;99819.61;104721;1274;62763;-29
2022/03/16 06:19:30;;;;;;;10.50;5.90;;;;;;;0.55;70.64;99823.59;104757;1274;74739;-29
2022/03/16 06:22:00;;;;;;;8.40;5.60;;;;;;;0.65;69.43;99823.31;104711;1274;76017;-29
2022/03/16 06:24:30;;;;;;;17.10;5.90;;;;;;;0.48;69.46;99830.45;104598;1275;74112;-29
2022/03/16 06:27:00;;;;;;;12.30;6.50;;;;;;;0.38;70.16;99831.41;104653;1278;61209;-28
2022/03/16 06:29:30;;;;;;;9.90;5.40;;;;;;;0.28;70.30;99828.58;104696;1275;62082;-28
2022/03/16 06:31:59;;;;;;;7.40;4.80;;;;;;;0.26;70.89;99835.98;104742;1274;73530;-28
2022/03/16 06:34:31;;;;;;;10.20;6.20;;;;;;;0.25;70.76;99837.20;104632;1274;75884;-30
2022/03/16 06:37:02;;;;;;;10.10;6.20;;;;;;;0.29;71.12;99843.92;104760;1274;74710;-28
2022/03/16 06:39:33;;;;;;;13.50;6.30;;;;;;;0.81;68.60;99840.30;104452;1274;61071;-28
2022/03/16 06:42:04;;;;;;;13.50;5.20;;;;;;;1.30;67.60;99845.04;104571;1275;61083;-28
2022/03/16 06:44:35;;;;;;;9.80;4.80;;;;;;;1.57;67.01;99853.62;104445;1275;74629;-28
2022/03/16 06:47:05;;;;;;;8.70;6.00;;;;;;;1.69;66.03;99856.35;104626;1274;74798;-28
2022/03/16 06:49:34;;;;;;;8.90;5.40;;;;;;;1.55;65.36;99857.97;104699;1275;74496;-28
2022/03/16 06:52:06;;;;;;;7.50;5.00;;;;;;;1.51;65.67;99867.84;104732;1276;61174;-28
2022/03/16 06:54:39;;;;;;;11.00;4.20;;;;;;;1.44;65.45;99865.80;104735;1274;61764;-28
2022/03/16 06:57:08;;;;;;;13.20;6.50;;;;;;;1.48;65.38;99860.05;104807;1274;74561;-28
2022/03/16 07:00:00;;;;;;;13.50;4.20;;;;;;;1.42;64.92;99862.30;104788;1274;75493;-27
2022/03/16 07:02:29;;;;;;;11.30;5.90;;;;;;;1.33;64.94;99859.29;104782;1274;74271;-28
2022/03/16 07:04:59;;;;;;;5.70;4.10;;;;;;;1.37;65.31;99862.77;104820;1274;61242;-28
2022/03/16 07:07:29;;;;;;;6.90;3.90;;;;;;;1.46;65.68;99869.37;104687;1277;61097;-28
2022/03/16 07:09:58;;;;;;;8.80;5.80;;;;;;;1.53;65.00;99876.01;104737;1275;74948;-28
2022/03/16 07:12:29;;;;;;;8.00;5.00;;;;;;;1.65;65.09;99879.91;104558;1274;75891;-28
2022/03/16 07:15:00;;;;;;;12.20;5.20;;;;;;;1.72;63.87;99883.80;104604;1274;74870;-28
2022/03/16 07:17:30;;;;;;;12.30;5.20;;;;;;;1.79;64.06;99888.70;104807;1274;61149;-28
2022/03/16 07:19:59;;;;;;;8.60;4.70;;;;;;;1.94;62.89;99892.86;104762;1274;61121;-28
2022/03/16 07:22:29;;;;;;;15.50;5.90;;;;;;;1.97;63.09;99892.75;104761;1274;76468;-28
2022/03/16 07:25:18;;;;;;;10.80;5.50;;;;;;;2.06;62.39;99888.17;104667;1274;76062;-29
2022/03/16 07:27:49;;;;;;;8.70;4.70;;;;;;;2.13;62.09;99890.53;104805;1274;76140;-31
2022/03/16 07:30:22;;;;;;;8.00;4.40;;;;;;;2.19;61.82;99891.38;104738;1274;61113;-31
2022/03/16 07:32:51;;;;;;;12.20;5.50;;;;;;;2.36;61.56;99886.35;104772;1274;61695;-29
2022/03/16 07:35:26;;;;;;;7.20;4.00;;;;;;;2.52;60.89;99880.33;104798;1274;74548;-28
2022/03/16 07:37:57;;;;;;;7.50;4.90;;;;;;;2.49;60.50;99888.30;104761;1274;75099;-30
2022/03/16 07:40:26;;;;;;;8.00;5.00;;;;;;;2.63;60.38;99889.17;104626;1275;72666;-29
2022/03/16 07:42:55;;;;;;;8.90;4.00;;;;;;;2.72;59.85;99889.89;104691;1274;61077;-29
2022/03/16 07:45:25;;;;;;;7.20;4.20;;;;;;;2.70;59.41;99895.95;104788;1274;61154;-29
2022/03/16 07:47:55;;;;;;;9.70;4.70;;;;;;;2.71;59.63;99900.55;104713;1274;75527;-29
2022/03/16 07:50:26;;;;;;;12.90;7.60;;;;;;;2.78;59.09;99905.98;104611;1275;76174;-29
2022/03/16 07:52:57;;;;;;;8.70;4.70;;;;;;;2.94;58.61;99901.30;104624;1274;74460;-29
2022/03/16 07:55:27;;;;;;;9.10;6.20;;;;;;;2.93;58.35;99900.14;104584;1274;61160;-29
2022/03/16 07:57:56;;;;;;;11.80;5.00;;;;;;;2.95;58.30;99901.42;104606;1276;61179;-29
2022/03/16 08:00:25;;;;;;;7.40;4.30;;;;;;;3.14;57.87;99907.45;104788;1274;75584;-30
2022/03/16 08:03:01;;;;;;;8.10;4.60;;;;;;;3.31;57.81;99903.91;104786;1274;74331;-29
2022/03/16 08:05:31;;;;;;;5.80;3.40;;;;;;;3.47;56.92;99901.27;104772;1274;74371;-29
2022/03/16 08:08:00;;;;;;;9.70;4.60;;;;;;;3.59;56.86;99909.01;104596;1274;61234;-29
2022/03/16 08:10:30;;;;;;;11.20;7.00;;;;;;;3.67;56.30;99909.53;104786;1274;62627;-29
2022/03/16 08:12:59;;;;;;;14.10;5.50;;;;;;;3.73;56.05;99915.19;104619;1274;74274;-30
2022/03/16 08:15:28;;;;;;;7.10;4.20;;;;;;;3.84;55.54;99911.14;104760;1274;73924;-29
2022/03/16 08:17:58;;;;;;;10.90;5.10;;;;;;;3.87;55.26;99908.45;104776;1274;73465;-29
2022/03/16 08:20:28;;;;;;;11.00;4.00;;;;;;;3.80;55.33;99905.27;104767;1274;61005;-29
2022/03/16 08:22:57;;;;;;;9.30;5.30;;;;;;;3.85;55.24;99904.55;104777;1274;61764;-29
2022/03/16 08:25:49;;;;;;;10.30;3.90;;;;;;;3.93;54.61;99899.80;104820;1274;75531;-29
2022/03/16 08:28:18;;;;;;;7.80;3.90;;;;;;;3.91;54.93;99915.33;104810;1274;76806;-29
2022/03/16 08:30:48;;;;;;;4.60;3.30;;;;;;;4.09;54.18;99910.30;104769;1274;72322;-29
2022/03/16 08:33:18;;;;;;;10.80;5.80;;;;;;;4.12;54.24;99922.73;104765;1274;61101;-29
2022/03/16 08:35:47;;;;;;;7.80;4.90;;;;;;;4.27;53.40;99920.94;104599;1274;61131;-29
2022/03/16 08:38:16;;;;;;;6.00;4.50;;;;;;;4.21;53.48;99924.77;104622;1274;75555;-29
2022/03/16 08:40:46;;;;;;;8.50;4.00;;;;;;;4.35;53.28;99929.71;104641;1274;76298;-29
2022/03/16 08:43:16;;;;;;;9.80;4.40;;;;;;;4.58;52.57;99931.70;104544;1275;74619;-29
2022/03/16 08:45:59;;;;;;;8.00;3.30;;;;;;;4.75;52.15;99930.58;104104;1279;61053;-28
2022/03/16 08:48:43;;;;;;;6.10;4.00;;;;;;;4.91;51.84;99935.25;103246;1287;61204;-29
2022/03/16 08:51:19;;;;;;;7.50;4.00;;;;;;;5.05;51.28;99933.27;103565;1287;75379;-29
2022/03/16 08:53:49;;;;;;;5.40;3.60;;;;;;;5.23;51.13;99939.86;104352;1284;76040;-30
2022/03/16 08:56:19;;;;;;;6.70;3.60;;;;;;;5.41;50.23;99940.96;104376;1284;73527;-30
2022/03/16 08:58:51;;;;;;;7.90;4.20;;;;;;;5.49;50.32;99942.98;104344;1284;61293;-30
2022/03/16 09:01:32;;;;;;;7.60;4.30;;;;;;;5.55;49.52;99941.70;104159;1284;62072;-30
2022/03/16 09:04:02;;;;;;;10.70;4.80;;;;;;;5.80;49.26;99942.63;103630;1284;75629;-30
2022/03/16 09:06:32;;;;;;;7.20;4.20;;;;;;;5.81;49.03;99938.07;104080;1284;76063;-28
2022/03/16 09:09:02;;;;;;;11.40;4.80;;;;;;;5.81;49.13;99941.18;104381;1284;74705;-28
2022/03/16 09:11:33;;;;;;;7.50;4.00;;;;;;;6.07;48.73;99943.80;103905;1284;61278;-28
2022/03/16 09:14:05;;;;;;;6.50;3.90;;;;;;;6.20;48.18;99951.78;103929;1284;61117;-28
2022/03/16 09:16:35;;;;;;;7.90;4.40;;;;;;;6.24;48.07;99960.38;103985;1278;76053;-28
2022/03/16 09:19:04;;;;;;;8.50;3.70;;;;;;;6.37;47.74;99964.38;104685;1277;75991;-28
2022/03/16 09:21:35;;;;;;;6.20;4.10;;;;;;;6.34;47.58;99965.60;105125;1271;72412;-28
2022/03/16 09:24:04;;;;;;;6.00;3.00;;;;;;;6.31;47.61;99962.25;105179;1271;61227;-28
2022/03/16 09:26:34;;;;;;;7.70;3.50;;;;;;;6.46;47.50;99964.15;105034;1271;61138;-28
2022/03/16 09:29:03;;;;;;;6.60;3.70;;;;;;;6.57;47.07;99966.71;105165;1271;75477;-28
2022/03/16 09:31:33;;;;;;;11.30;4.20;;;;;;;6.47;47.11;99964.76;105083;1272;77246;-28
2022/03/16 09:34:05;;;;;;;7.30;3.90;;;;;;;6.61;47.10;99968.90;104892;1271;74210;-31
2022/03/16 09:36:37;;;;;;;5.90;3.50;;;;;;;6.94;46.22;99967.77;104679;1271;62141;-30
2022/03/16 09:39:06;;;;;;;9.90;4.70;;;;;;;7.09;45.20;99964.73;104698;1271;61565;-29
2022/03/16 09:41:37;;;;;;;7.30;4.70;;;;;;;6.89;45.64;99963.52;104814;1271;74516;-28
2022/03/16 09:44:07;;;;;;;7.90;3.80;;;;;;;6.88;45.61;99965.51;104894;1272;76451;-29
2022/03/16 09:46:39;;;;;;;8.40;4.20;;;;;;;7.01;45.81;99966.89;104768;1273;74511;-30
2022/03/16 09:49:08;;;;;;;7.70;4.00;;;;;;;7.23;45.30;99971.81;105110;1271;62095;-31
2022/03/16 09:51:39;;;;;;;8.10;4.10;;;;;;;7.25;44.90;99959.77;104854;1271;61108;-29
2022/03/16 09:54:09;;;;;;;7.70;3.30;;;;;;;7.22;45.29;99967.02;104792;1271;75202;-30
2022/03/16 09:56:39;;;;;;;7.10;3.90;;;;;;;7.42;44.96;99963.88;104644;1272;75103;-29
2022/03/16 09:59:10;;;;;;;5.50;3.90;;;;;;;7.56;44.44;99966.95;104959;1272;74453;-28
2022/03/16 10:01:42;;;;;;;10.90;4.30;;;;;;;7.28;44.55;99965.82;104749;1271;62769;-30
2022/03/16 10:04:13;;;;;;;6.60;4.40;;;;;;;7.20;45.28;99966.23;105105;1271;61955;-30
2022/03/16 10:06:42;;;;;;;6.00;3.40;;;;;;;7.40;45.29;99968.29;105093;1271;75538;-28
2022/03/16 10:15:19;;;;;;;12.30;6.20;;;;;;;8.58;42.94;99980.67;104934;1272;61823;-31
2022/03/16 10:17:52;;;;;;;9.00;4.70;;;;;;;8.09;43.52;99982.02;104627;1272;61164;-30
2022/03/16 10:20:23;;;;;;;4.90;3.20;;;;;;;8.22;43.51;99975.23;104779;1271;75275;-28
2022/03/16 10:23:07;;;;;;;7.80;4.70;;;;;;;8.23;43.65;99975.23;104802;1271;73968;-31
2022/03/16 10:25:41;;;;;;;;;;;;;;;8.32;43.25;99975.55;104811;1271;74601;-30
2022/03/16 10:28:20;;;;;;;7.30;4.20;;;;;;;8.51;43.63;99968.41;104702;1272;62355;-30
2022/03/16 10:30:58;;;;;;;7.60;4.30;;;;;;;8.59;43.17;99968.85;104927;1272;61960;-30
2022/03/16 10:33:30;;;;;;;8.30;4.20;;;;;;;8.70;43.06;99970.79;104764;1273;74324;-30
2022/03/16 10:36:08;;;;;;;9.90;5.90;;;;;;;8.68;42.24;99957.92;105110;1270;74086;-31
2022/03/16 10:38:39;;;;;;;8.70;4.70;;;;;;;8.27;42.81;99969.61;104842;1271;74323;-33
2022/03/16 10:41:13;;;;;;;9.90;5.50;;;;;;;8.30;42.96;99964.74;104903;1272;61859;-31
2022/03/16 10:46:40;;;;;;;8.80;4.70;;;;;;;8.21;43.55;99965.98;104944;1271;73500;-31
2022/03/16 10:49:15;;;;;;;9.10;4.10;;;;;;;8.23;43.23;99970.88;104988;1271;76112;-30
2022/03/16 10:51:45;;;;;;;7.90;5.00;;;;;;;8.37;43.35;99971.48;105108;1271;74420;-29
2022/03/16 10:54:25;;;;;;;6.40;4.10;;;;;;;8.34;43.35;99976.45;105083;1271;62364;-29
2022/03/16 10:56:56;;;;;;;8.70;4.70;;;;;;;8.46;43.40;99976.48;104894;1271;62402;-31
2022/03/16 10:59:30;;;;;;;7.70;5.00;;;;;;;8.64;43.09;99977.39;104640;1271;75532;-30
2022/03/16 11:02:12;;;;;;;10.70;5.50;;;;;;;8.30;42.93;99974.60;104660;1271;76365;-30
2022/03/16 11:04:53;;;;;;;11.30;4.70;;;;;;;7.92;43.96;99976.56;104624;1272;74389;-29
2022/03/16 11:07:23;;;;;;;15.00;6.50;;;;;;;7.98;43.88;99978.52;104646;1271;61192;-29
2022/03/16 11:09:54;;;;;;;8.50;4.90;;;;;;;8.10;44.11;99981.08;104884;1271;62057;-29
2022/03/16 11:15:13;;;;;;;16.60;7.70;;;;;;;8.53;43.18;99981.45;105086;1271;75868;-28
2022/03/16 11:17:44;;;;;;;12.10;6.60;;;;;;;8.75;43.16;99982.98;104895;1271;73176;-28
2022/03/16 11:20:19;;;;;;;12.40;6.00;;;;;;;8.72;42.57;99976.58;104978;1271;61226;-30
2022/03/16 11:26:11;;;;;;;11.50;6.30;;;;;;;8.20;43.41;99978.11;104906;1271;75462;-30
2022/03/16 11:28:57;;;;;;;7.50;3.80;;;;;;;8.38;43.24;99977.99;105116;1271;75997;-29
2022/03/16 11:31:31;;;;;;;10.20;5.00;;;;;;;8.56;42.85;99985.98;105000;1271;72401;-30
2022/03/16 11:34:10;;;;;;;13.40;7.40;;;;;;;8.69;42.55;99985.38;104944;1271;61889;-31
2022/03/16 11:36:41;;;;;;;8.50;5.00;;;;;;;8.63;42.38;99981.10;105013;1271;61898;-29
2022/03/16 11:39:16;;;;;;;11.00;6.20;;;;;;;8.15;42.78;99976.69;104854;1271;75554;-30
2022/03/16 11:41:54;;;;;;;10.50;5.70;;;;;;;7.63;44.02;99987.99;104976;1272;75971;-29
2022/03/16 11:44:26;;;;;;;8.00;5.40;;;;;;;7.61;44.48;99989.45;105013;1272;74429;-29
2022/03/16 11:47:09;;;;;;;8.00;4.90;;;;;;;7.62;44.38;99995.13;104990;1271;62105;-28
2022/03/16 11:49:45;;;;;;;6.40;4.30;;;;;;;7.73;44.38;99988.81;104718;1271;61108;-29
2022/03/16 11:52:15;;;;;;;8.90;5.40;;;;;;;7.77;44.09;99991.03;104742;1272;75102;-29
2022/03/16 11:54:47;;;;;;;8.60;3.90;;;;;;;7.80;43.74;99987.92;104743;1271;75788;-29
2022/03/16 11:57:36;;;;;;;9.30;4.40;;;;;;;7.70;44.29;99985.21;104663;1271;74430;-29
2022/03/16 12:00:16;;;;;;;7.10;3.80;;;;;;;7.82;44.08;99990.42;104717;1271;61016;-29